sensor_id;sensor_type;location;lat;lon;timestamp;pressure;altitude;pressure_sealevel;temperature;humidity
16544;BME280;8384;47.996;7.786;2022-07-05T00:02:00;99115.69;;;19.86;66.93
16544;BME280;8384;47.996;7.786;2022-07-05T00:04:25;99117.22;;;19.78;67.36
16544;BME280;8384;47.996;7.786;2022-07-05T00:06:50;99117.56;;;19.77;67.29
16544;BME280;8384;47.996;7.786;2022-07-05T00:09:34;99114.34;;;19.84;67.22
16544;BME280;8384;47.996;7.786;2022-07-05T00:12:00;99106.66;;;19.81;66.93
16544;BME280;8384;47.996;7.786;2022-07-05T00:14:25;99110.25;;;19.81;67.04
16544;BME280;8384;47.996;7.786;2022-07-05T00:16:50;99109.22;;;19.91;66.94
16544;BME280;8384;47.996;7.786;2022-07-05T00:19:16;99112.28;;;19.89;66.89
16544;BME280;8384;47.996;7.786;2022-07-05T00:21:41;99113.94;;;19.90;66.79
16544;BME280;8384;47.996;7.786;2022-07-05T00:24:07;99115.91;;;19.90;67.18
16544;BME280;8384;47.996;7.786;2022-07-05T00:26:32;99130.44;;;19.96;66.55
16544;BME280;8384;47.996;7.786;2022-07-05T00:28:57;99127.34;;;19.60;68.82
16544;BME280;8384;47.996;7.786;2022-07-05T00:31:23;99143.53;;;19.44;70.41
16544;BME280;8384;47.996;7.786;2022-07-05T00:33:48;99122.13;;;19.08;72.11
16544;BME280;8384;47.996;7.786;2022-07-05T00:36:13;99140.66;;;18.80;74.13
16544;BME280;8384;47.996;7.786;2022-07-05T00:38:38;99145.25;;;18.70;74.39
16544;BME280;8384;47.996;7.786;2022-07-05T00:41:04;99135.69;;;18.49;74.74
16544;BME280;8384;47.996;7.786;2022-07-05T00:43:29;99127.59;;;18.52;74.18
16544;BME280;8384;47.996;7.786;2022-07-05T00:45:54;99111.81;;;18.53;73.49
16544;BME280;8384;47.996;7.786;2022-07-05T00:48:20;99123.53;;;18.78;72.78
16544;BME280;8384;47.996;7.786;2022-07-05T00:50:45;99121.56;;;18.78;72.89
16544;BME280;8384;47.996;7.786;2022-07-05T00:53:11;99123.72;;;18.81;72.54
16544;BME280;8384;47.996;7.786;2022-07-05T00:55:36;99124.25;;;18.83;72.21
16544;BME280;8384;47.996;7.786;2022-07-05T00:58:02;99112.03;;;18.70;72.53
16544;BME280;8384;47.996;7.786;2022-07-05T01:00:27;99111.19;;;18.70;72.51
16544;BME280;8384;47.996;7.786;2022-07-05T01:02:53;99106.19;;;18.72;72.47
16544;BME280;8384;47.996;7.786;2022-07-05T01:05:18;99118.72;;;18.83;72.49
16544;BME280;8384;47.996;7.786;2022-07-05T01:07:44;99117.47;;;18.89;71.84
16544;BME280;8384;47.996;7.786;2022-07-05T01:10:09;99113.06;;;18.88;72.35
16544;BME280;8384;47.996;7.786;2022-07-05T01:12:38;99119.88;;;18.96;71.56
16544;BME280;8384;47.996;7.786;2022-07-05T01:15:04;99116.69;;;19.03;71.19
16544;BME280;8384;47.996;7.786;2022-07-05T01:17:30;99117.28;;;19.00;71.18
16544;BME280;8384;47.996;7.786;2022-07-05T01:19:56;99117.56;;;18.70;73.48
16544;BME280;8384;47.996;7.786;2022-07-05T01:22:24;99110.19;;;18.52;74.12
16544;BME280;8384;47.996;7.786;2022-07-05T01:24:51;99121.03;;;18.48;75.15
16544;BME280;8384;47.996;7.786;2022-07-05T01:27:18;99105.34;;;18.43;74.99
16544;BME280;8384;47.996;7.786;2022-07-05T01:29:44;99112.19;;;18.46;75.62
16544;BME280;8384;47.996;7.786;2022-07-05T01:32:09;99108.00;;;18.35;76.03
16544;BME280;8384;47.996;7.786;2022-07-05T01:34:39;99115.16;;;18.36;76.28
16544;BME280;8384;47.996;7.786;2022-07-05T01:37:05;99102.09;;;18.22;76.99
16544;BME280;8384;47.996;7.786;2022-07-05T01:39:30;99106.13;;;18.44;76.53
16544;BME280;8384;47.996;7.786;2022-07-05T01:41:55;99109.72;;;18.31;76.98
16544;BME280;8384;47.996;7.786;2022-07-05T01:44:21;99107.31;;;18.10;77.50
16544;BME280;8384;47.996;7.786;2022-07-05T01:46:50;99115.94;;;18.22;77.56
16544;BME280;8384;47.996;7.786;2022-07-05T01:49:17;99117.34;;;18.06;78.35
16544;BME280;8384;47.996;7.786;2022-07-05T01:51:54;99115.44;;;18.01;78.33
16544;BME280;8384;47.996;7.786;2022-07-05T01:54:19;99118.81;;;17.98;78.63
16544;BME280;8384;47.996;7.786;2022-07-05T01:56:45;99116.13;;;17.93;78.86
16544;BME280;8384;47.996;7.786;2022-07-05T01:59:11;99107.47;;;17.80;78.85
16544;BME280;8384;47.996;7.786;2022-07-05T02:01:38;99120.16;;;17.81;78.86
16544;BME280;8384;47.996;7.786;2022-07-05T02:04:08;99113.97;;;17.71;79.21
16544;BME280;8384;47.996;7.786;2022-07-05T02:06:34;99122.59;;;17.69;79.25
16544;BME280;8384;47.996;7.786;2022-07-05T02:09:00;99123.19;;;17.66;79.13
16544;BME280;8384;47.996;7.786;2022-07-05T02:11:26;99105.41;;;17.53;79.19
16544;BME280;8384;47.996;7.786;2022-07-05T02:13:51;99120.47;;;17.61;79.09
16544;BME280;8384;47.996;7.786;2022-07-05T02:16:16;99107.50;;;17.42;79.26
16544;BME280;8384;47.996;7.786;2022-07-05T02:18:42;99133.22;;;17.37;81.20
16544;BME280;8384;47.996;7.786;2022-07-05T02:21:07;99122.09;;;17.23;81.98
16544;BME280;8384;47.996;7.786;2022-07-05T02:23:32;99128.16;;;17.26;81.87
16544;BME280;8384;47.996;7.786;2022-07-05T02:25:58;99130.75;;;17.17;82.47
16544;BME280;8384;47.996;7.786;2022-07-05T02:28:23;99138.41;;;17.01;83.55
16544;BME280;8384;47.996;7.786;2022-07-05T02:30:48;99118.47;;;16.79;84.05
16544;BME280;8384;47.996;7.786;2022-07-05T02:33:14;99137.53;;;16.76;85.31
16544;BME280;8384;47.996;7.786;2022-07-05T02:35:39;99134.81;;;16.46;87.18
16544;BME280;8384;47.996;7.786;2022-07-05T02:38:05;99117.97;;;16.18;87.85
16544;BME280;8384;47.996;7.786;2022-07-05T02:40:30;99127.13;;;16.14;89.41
16544;BME280;8384;47.996;7.786;2022-07-05T02:42:56;99136.50;;;16.13;89.73
16544;BME280;8384;47.996;7.786;2022-07-05T02:45:22;99121.47;;;15.95;89.93
16544;BME280;8384;47.996;7.786;2022-07-05T02:47:47;99147.31;;;16.04;89.47
16544;BME280;8384;47.996;7.786;2022-07-05T02:50:14;99148.47;;;15.98;89.29
16544;BME280;8384;47.996;7.786;2022-07-05T02:52:39;99150.13;;;15.99;89.28
16544;BME280;8384;47.996;7.786;2022-07-05T02:55:05;99156.50;;;15.94;89.79
16544;BME280;8384;47.996;7.786;2022-07-05T02:57:30;99152.50;;;15.71;91.11
16544;BME280;8384;47.996;7.786;2022-07-05T02:59:56;99148.44;;;15.58;92.16
16544;BME280;8384;47.996;7.786;2022-07-05T03:02:22;99157.38;;;15.79;91.05
16544;BME280;8384;47.996;7.786;2022-07-05T03:04:48;99140.66;;;15.65;90.39
16544;BME280;8384;47.996;7.786;2022-07-05T03:07:13;99153.53;;;15.80;91.05
16544;BME280;8384;47.996;7.786;2022-07-05T03:09:39;99154.94;;;15.78;90.61
16544;BME280;8384;47.996;7.786;2022-07-05T03:12:04;99160.00;;;15.60;91.89
16544;BME280;8384;47.996;7.786;2022-07-05T03:14:30;99154.25;;;15.51;92.23
16544;BME280;8384;47.996;7.786;2022-07-05T03:16:55;99144.41;;;15.40;92.96
16544;BME280;8384;47.996;7.786;2022-07-05T03:19:20;99168.66;;;15.38;93.74
16544;BME280;8384;47.996;7.786;2022-07-05T03:21:46;99172.19;;;15.43;93.49
16544;BME280;8384;47.996;7.786;2022-07-05T03:24:11;99148.53;;;15.37;92.62
16544;BME280;8384;47.996;7.786;2022-07-05T03:26:36;99154.31;;;15.41;92.76
16544;BME280;8384;47.996;7.786;2022-07-05T03:29:02;99172.97;;;15.54;92.42
16544;BME280;8384;47.996;7.786;2022-07-05T03:31:27;99171.94;;;15.45;93.18
16544;BME280;8384;47.996;7.786;2022-07-05T03:33:52;99165.59;;;15.44;93.71
16544;BME280;8384;47.996;7.786;2022-07-05T03:36:18;99162.59;;;15.41;93.36
16544;BME280;8384;47.996;7.786;2022-07-05T03:38:43;99183.97;;;15.59;93.25
16544;BME280;8384;47.996;7.786;2022-07-05T03:41:08;99185.59;;;15.66;92.87
16544;BME280;8384;47.996;7.786;2022-07-05T03:43:34;99170.75;;;15.56;92.99
16544;BME280;8384;47.996;7.786;2022-07-05T03:45:59;99143.28;;;15.46;92.90
16544;BME280;8384;47.996;7.786;2022-07-05T03:48:24;99174.25;;;15.72;92.64
16544;BME280;8384;47.996;7.786;2022-07-05T03:50:50;99180.28;;;15.80;92.05
16544;BME280;8384;47.996;7.786;2022-07-05T03:53:15;99187.97;;;15.88;90.57
16544;BME280;8384;47.996;7.786;2022-07-05T03:55:40;99197.56;;;15.96;89.77
16544;BME280;8384;47.996;7.786;2022-07-05T03:58:06;99180.75;;;15.92;88.99
16544;BME280;8384;47.996;7.786;2022-07-05T04:00:31;99188.91;;;16.13;87.02
16544;BME280;8384;47.996;7.786;2022-07-05T04:02:57;99186.63;;;16.20;83.25
16544;BME280;8384;47.996;7.786;2022-07-05T04:05:22;99194.75;;;16.41;80.50
16544;BME280;8384;47.996;7.786;2022-07-05T04:07:49;99202.97;;;16.46;79.97
16544;BME280;8384;47.996;7.786;2022-07-05T04:10:15;99196.28;;;16.52;79.03
16544;BME280;8384;47.996;7.786;2022-07-05T04:12:40;99185.97;;;16.63;77.61
16544;BME280;8384;47.996;7.786;2022-07-05T04:15:06;99177.97;;;16.67;76.91
16544;BME280;8384;47.996;7.786;2022-07-05T04:17:32;99203.41;;;16.88;77.23
16544;BME280;8384;47.996;7.786;2022-07-05T04:19:57;99207.47;;;16.96;76.78
16544;BME280;8384;47.996;7.786;2022-07-05T04:22:22;99198.63;;;16.99;76.30
16544;BME280;8384;47.996;7.786;2022-07-05T04:24:47;99166.03;;;16.71;76.37
16544;BME280;8384;47.996;7.786;2022-07-05T04:27:31;99190.66;;;16.92;76.20
16544;BME280;8384;47.996;7.786;2022-07-05T04:29:57;99211.16;;;17.15;75.62
16544;BME280;8384;47.996;7.786;2022-07-05T04:32:22;99208.03;;;17.22;74.80
16544;BME280;8384;47.996;7.786;2022-07-05T04:34:47;99215.09;;;17.33;74.44
16544;BME280;8384;47.996;7.786;2022-07-05T04:37:12;99209.25;;;17.35;74.20
16544;BME280;8384;47.996;7.786;2022-07-05T04:39:38;99206.91;;;17.47;73.46
16544;BME280;8384;47.996;7.786;2022-07-05T04:42:03;99202.94;;;17.53;72.57
16544;BME280;8384;47.996;7.786;2022-07-05T04:44:29;99221.63;;;17.62;72.80
16544;BME280;8384;47.996;7.786;2022-07-05T04:46:54;99212.16;;;17.68;72.52
16544;BME280;8384;47.996;7.786;2022-07-05T04:49:19;99216.84;;;17.67;72.52
16544;BME280;8384;47.996;7.786;2022-07-05T04:51:44;99172.53;;;17.53;71.98
16544;BME280;8384;47.996;7.786;2022-07-05T04:54:10;99224.38;;;17.86;71.32
16544;BME280;8384;47.996;7.786;2022-07-05T04:56:35;99221.94;;;17.79;71.91
16544;BME280;8384;47.996;7.786;2022-07-05T04:59:00;99223.31;;;17.82;70.63
16544;BME280;8384;47.996;7.786;2022-07-05T05:01:25;99216.34;;;17.84;70.23
16544;BME280;8384;47.996;7.786;2022-07-05T05:03:51;99238.00;;;18.02;69.46
16544;BME280;8384;47.996;7.786;2022-07-05T05:06:16;99244.56;;;18.06;69.00
16544;BME280;8384;47.996;7.786;2022-07-05T05:08:41;99236.41;;;18.14;68.50
16544;BME280;8384;47.996;7.786;2022-07-05T05:11:07;99232.38;;;18.26;68.27
16544;BME280;8384;47.996;7.786;2022-07-05T05:13:32;99226.75;;;18.31;67.85
16544;BME280;8384;47.996;7.786;2022-07-05T05:15:58;99236.94;;;18.36;67.77
16544;BME280;8384;47.996;7.786;2022-07-05T05:18:23;99223.97;;;18.31;68.01
16544;BME280;8384;47.996;7.786;2022-07-05T05:20:53;99245.41;;;18.58;66.94
16544;BME280;8384;47.996;7.786;2022-07-05T05:23:20;99224.41;;;18.57;66.37
16544;BME280;8384;47.996;7.786;2022-07-05T05:25:45;99246.38;;;18.82;65.47
16544;BME280;8384;47.996;7.786;2022-07-05T05:28:10;99238.00;;;18.87;64.95
16544;BME280;8384;47.996;7.786;2022-07-05T05:30:35;99213.69;;;18.84;64.25
16544;BME280;8384;47.996;7.786;2022-07-05T05:33:01;99223.16;;;18.97;64.05
16544;BME280;8384;47.996;7.786;2022-07-05T05:35:26;99249.47;;;19.27;62.97
16544;BME280;8384;47.996;7.786;2022-07-05T05:37:54;99247.84;;;19.40;61.88
16544;BME280;8384;47.996;7.786;2022-07-05T05:40:21;99260.06;;;19.53;60.47
16544;BME280;8384;47.996;7.786;2022-07-05T05:42:47;99257.91;;;19.64;60.06
16544;BME280;8384;47.996;7.786;2022-07-05T05:45:13;99249.34;;;19.60;60.43
16544;BME280;8384;47.996;7.786;2022-07-05T05:47:52;99263.84;;;19.71;59.27
16544;BME280;8384;47.996;7.786;2022-07-05T05:50:19;99261.88;;;19.86;58.39
16544;BME280;8384;47.996;7.786;2022-07-05T05:52:46;99254.16;;;19.97;57.66
16544;BME280;8384;47.996;7.786;2022-07-05T05:55:11;99251.50;;;19.91;57.64
16544;BME280;8384;47.996;7.786;2022-07-05T05:57:37;99260.00;;;20.09;57.17
16544;BME280;8384;47.996;7.786;2022-07-05T06:00:04;99263.44;;;20.29;56.16
16544;BME280;8384;47.996;7.786;2022-07-05T06:02:29;99257.19;;;20.23;55.96
16544;BME280;8384;47.996;7.786;2022-07-05T06:04:55;99266.69;;;20.45;55.99
16544;BME280;8384;47.996;7.786;2022-07-05T06:07:20;99270.66;;;20.52;55.22
16544;BME280;8384;47.996;7.786;2022-07-05T06:09:45;99273.25;;;20.72;53.63
16544;BME280;8384;47.996;7.786;2022-07-05T06:12:10;99271.72;;;20.88;50.47
16544;BME280;8384;47.996;7.786;2022-07-05T06:14:36;99272.00;;;20.78;50.24
16544;BME280;8384;47.996;7.786;2022-07-05T06:17:01;99261.81;;;20.73;51.20
16544;BME280;8384;47.996;7.786;2022-07-05T06:19:26;99266.47;;;20.78;52.20
16544;BME280;8384;47.996;7.786;2022-07-05T06:21:51;99272.41;;;20.94;51.78
16544;BME280;8384;47.996;7.786;2022-07-05T06:24:17;99265.22;;;20.93;50.27
16544;BME280;8384;47.996;7.786;2022-07-05T06:26:42;99283.81;;;21.15;50.60
16544;BME280;8384;47.996;7.786;2022-07-05T06:29:07;99278.00;;;21.25;49.76
16544;BME280;8384;47.996;7.786;2022-07-05T06:31:32;99280.31;;;21.32;49.31
16544;BME280;8384;47.996;7.786;2022-07-05T06:33:57;99283.06;;;21.23;49.93
16544;BME280;8384;47.996;7.786;2022-07-05T06:36:23;99275.34;;;21.20;49.07
16544;BME280;8384;47.996;7.786;2022-07-05T06:38:48;99258.16;;;20.87;48.79
16544;BME280;8384;47.996;7.786;2022-07-05T06:41:13;99251.66;;;20.68;46.93
16544;BME280;8384;47.996;7.786;2022-07-05T06:43:39;99277.59;;;20.64;44.53
16544;BME280;8384;47.996;7.786;2022-07-05T06:46:04;99282.97;;;20.83;43.34
16544;BME280;8384;47.996;7.786;2022-07-05T06:48:30;99282.34;;;20.86;44.71
16544;BME280;8384;47.996;7.786;2022-07-05T06:50:55;99259.03;;;20.73;43.93
16544;BME280;8384;47.996;7.786;2022-07-05T06:53:21;99271.47;;;20.76;46.11
16544;BME280;8384;47.996;7.786;2022-07-05T06:55:46;99289.84;;;21.08;45.77
16544;BME280;8384;47.996;7.786;2022-07-05T06:58:11;99288.16;;;20.98;45.58
16544;BME280;8384;47.996;7.786;2022-07-05T07:00:38;99280.94;;;20.97;46.36
16544;BME280;8384;47.996;7.786;2022-07-05T07:03:03;99296.91;;;21.15;45.46
16544;BME280;8384;47.996;7.786;2022-07-05T07:05:30;99298.91;;;21.23;44.44
16544;BME280;8384;47.996;7.786;2022-07-05T07:07:55;99299.09;;;21.26;44.52
16544;BME280;8384;47.996;7.786;2022-07-05T07:10:39;99304.81;;;21.30;44.28
16544;BME280;8384;47.996;7.786;2022-07-05T07:13:04;99294.84;;;21.29;44.16
16544;BME280;8384;47.996;7.786;2022-07-05T07:15:30;99299.84;;;21.50;45.04
16544;BME280;8384;47.996;7.786;2022-07-05T07:17:56;99312.03;;;21.63;45.04
16544;BME280;8384;47.996;7.786;2022-07-05T07:20:21;99313.94;;;21.53;44.54
16544;BME280;8384;47.996;7.786;2022-07-05T07:22:46;99308.88;;;21.55;45.13
16544;BME280;8384;47.996;7.786;2022-07-05T07:25:12;99307.97;;;21.78;46.30
16544;BME280;8384;47.996;7.786;2022-07-05T07:27:45;99301.63;;;21.77;45.01
16544;BME280;8384;47.996;7.786;2022-07-05T07:30:12;99282.44;;;21.67;44.70
16544;BME280;8384;47.996;7.786;2022-07-05T07:32:38;99294.88;;;21.69;45.10
16544;BME280;8384;47.996;7.786;2022-07-05T07:35:04;99284.81;;;21.60;46.13
16544;BME280;8384;47.996;7.786;2022-07-05T07:37:29;99284.09;;;21.77;44.50
16544;BME280;8384;47.996;7.786;2022-07-05T07:39:54;99310.34;;;21.93;44.49
16544;BME280;8384;47.996;7.786;2022-07-05T07:42:20;99307.03;;;21.82;44.41
16544;BME280;8384;47.996;7.786;2022-07-05T07:44:45;99313.94;;;22.02;44.45
16544;BME280;8384;47.996;7.786;2022-07-05T07:47:10;99300.72;;;22.26;43.60
16544;BME280;8384;47.996;7.786;2022-07-05T07:49:35;99329.09;;;22.45;43.46
16544;BME280;8384;47.996;7.786;2022-07-05T07:52:02;99322.88;;;22.66;42.76
16544;BME280;8384;47.996;7.786;2022-07-05T07:54:27;99326.97;;;22.77;41.42
16544;BME280;8384;47.996;7.786;2022-07-05T07:56:52;99316.78;;;22.90;41.31
16544;BME280;8384;47.996;7.786;2022-07-05T07:59:18;99318.41;;;23.27;40.95
16544;BME280;8384;47.996;7.786;2022-07-05T08:01:43;99315.06;;;23.42;40.75
16544;BME280;8384;47.996;7.786;2022-07-05T08:04:08;99293.06;;;23.41;40.75
16544;BME280;8384;47.996;7.786;2022-07-05T08:06:34;99304.03;;;23.46;40.87
16544;BME280;8384;47.996;7.786;2022-07-05T08:08:59;99303.28;;;23.10;42.11
16544;BME280;8384;47.996;7.786;2022-07-05T08:11:24;99315.63;;;23.00;40.14
16544;BME280;8384;47.996;7.786;2022-07-05T08:13:49;99308.41;;;22.99;40.58
16544;BME280;8384;47.996;7.786;2022-07-05T08:16:15;99303.66;;;23.09;41.20
16544;BME280;8384;47.996;7.786;2022-07-05T08:18:40;99305.22;;;23.36;39.30
16544;BME280;8384;47.996;7.786;2022-07-05T08:21:24;99283.91;;;23.31;38.75
16544;BME280;8384;47.996;7.786;2022-07-05T08:24:04;99303.56;;;23.35;40.20
16544;BME280;8384;47.996;7.786;2022-07-05T08:26:30;99301.00;;;23.69;40.11
16544;BME280;8384;47.996;7.786;2022-07-05T08:28:59;99302.66;;;24.21;39.57
16544;BME280;8384;47.996;7.786;2022-07-05T08:31:25;99289.47;;;23.70;41.09
16544;BME280;8384;47.996;7.786;2022-07-05T08:33:51;99278.19;;;23.96;41.50
16544;BME280;8384;47.996;7.786;2022-07-05T08:36:16;99304.16;;;24.39;41.51
16544;BME280;8384;47.996;7.786;2022-07-05T08:38:42;99310.66;;;24.31;40.33
16544;BME280;8384;47.996;7.786;2022-07-05T08:41:09;99307.94;;;23.92;40.94
16544;BME280;8384;47.996;7.786;2022-07-05T08:43:36;99289.25;;;24.14;41.01
16544;BME280;8384;47.996;7.786;2022-07-05T08:46:05;99296.81;;;24.35;40.23
16544;BME280;8384;47.996;7.786;2022-07-05T08:48:33;99310.09;;;24.38;39.68
16544;BME280;8384;47.996;7.786;2022-07-05T08:51:02;99313.53;;;24.22;40.26
16544;BME280;8384;47.996;7.786;2022-07-05T08:53:28;99310.84;;;24.26;39.93
16544;BME280;8384;47.996;7.786;2022-07-05T08:55:54;99299.53;;;24.01;40.79
16544;BME280;8384;47.996;7.786;2022-07-05T08:58:20;99304.78;;;23.94;40.25
16544;BME280;8384;47.996;7.786;2022-07-05T09:00:46;99317.72;;;24.07;40.12
16544;BME280;8384;47.996;7.786;2022-07-05T09:03:11;99309.81;;;24.31;39.86
16544;BME280;8384;47.996;7.786;2022-07-05T09:05:42;99301.78;;;24.08;40.93
16544;BME280;8384;47.996;7.786;2022-07-05T09:08:13;99306.75;;;24.45;40.39
16544;BME280;8384;47.996;7.786;2022-07-05T09:10:43;99306.34;;;24.34;38.41
16544;BME280;8384;47.996;7.786;2022-07-05T09:13:08;99288.66;;;24.08;39.79
16544;BME280;8384;47.996;7.786;2022-07-05T09:15:38;99302.00;;;24.45;40.00
16544;BME280;8384;47.996;7.786;2022-07-05T09:18:03;99318.28;;;24.85;39.38
16544;BME280;8384;47.996;7.786;2022-07-05T09:20:29;99305.72;;;24.70;39.84
16544;BME280;8384;47.996;7.786;2022-07-05T09:22:55;99317.94;;;24.87;38.33
16544;BME280;8384;47.996;7.786;2022-07-05T09:25:29;99317.38;;;25.40;37.95
16544;BME280;8384;47.996;7.786;2022-07-05T09:28:05;99305.63;;;25.59;37.61
16544;BME280;8384;47.996;7.786;2022-07-05T09:30:33;99314.81;;;25.35;37.59
16544;BME280;8384;47.996;7.786;2022-07-05T09:33:01;99317.13;;;25.33;37.27
16544;BME280;8384;47.996;7.786;2022-07-05T09:35:31;99320.88;;;24.91;37.37
16544;BME280;8384;47.996;7.786;2022-07-05T09:37:57;99310.72;;;24.86;39.01
16544;BME280;8384;47.996;7.786;2022-07-05T09:40:22;99328.09;;;25.38;38.18
16544;BME280;8384;47.996;7.786;2022-07-05T09:42:48;99319.78;;;25.63;37.66
16544;BME280;8384;47.996;7.786;2022-07-05T09:45:21;99313.72;;;25.60;39.04
16544;BME280;8384;47.996;7.786;2022-07-05T09:47:48;99319.97;;;25.45;38.34
16544;BME280;8384;47.996;7.786;2022-07-05T09:50:14;99319.16;;;25.44;38.50
16544;BME280;8384;47.996;7.786;2022-07-05T09:52:40;99308.91;;;25.61;37.35
16544;BME280;8384;47.996;7.786;2022-07-05T09:55:16;99311.94;;;25.93;36.52
16544;BME280;8384;47.996;7.786;2022-07-05T09:57:43;99310.44;;;25.12;38.40
16544;BME280;8384;47.996;7.786;2022-07-05T10:00:15;99315.44;;;25.07;38.51
16544;BME280;8384;47.996;7.786;2022-07-05T10:02:48;99307.28;;;25.01;37.50
16544;BME280;8384;47.996;7.786;2022-07-05T10:05:20;99299.81;;;25.52;37.25
16544;BME280;8384;47.996;7.786;2022-07-05T10:10:19;99306.50;;;26.50;33.65
16544;BME280;8384;47.996;7.786;2022-07-05T10:12:47;99306.50;;;26.50;34.67
16544;BME280;8384;47.996;7.786;2022-07-05T10:15:15;99302.84;;;26.90;34.07
16544;BME280;8384;47.996;7.786;2022-07-05T10:17:45;99304.06;;;26.48;34.36
16544;BME280;8384;47.996;7.786;2022-07-05T10:20:19;99309.16;;;26.18;34.27
16544;BME280;8384;47.996;7.786;2022-07-05T10:22:48;99289.19;;;26.89;33.91
16544;BME280;8384;47.996;7.786;2022-07-05T10:25:14;99300.31;;;27.46;33.18
16544;BME280;8384;47.996;7.786;2022-07-05T10:27:40;99297.88;;;27.76;32.53
16544;BME280;8384;47.996;7.786;2022-07-05T10:30:06;99295.28;;;26.91;31.59
16544;BME280;8384;47.996;7.786;2022-07-05T10:32:33;99305.81;;;27.10;33.08
16544;BME280;8384;47.996;7.786;2022-07-05T10:34:59;99302.59;;;26.67;32.70
16544;BME280;8384;47.996;7.786;2022-07-05T10:37:27;99314.97;;;26.25;33.14
16544;BME280;8384;47.996;7.786;2022-07-05T10:39:58;99311.47;;;26.69;32.47
16544;BME280;8384;47.996;7.786;2022-07-05T10:42:27;99303.00;;;26.82;31.72
16544;BME280;8384;47.996;7.786;2022-07-05T10:44:53;99306.59;;;27.10;32.04
16544;BME280;8384;47.996;7.786;2022-07-05T10:47:18;99309.16;;;27.16;32.10
16544;BME280;8384;47.996;7.786;2022-07-05T10:49:59;99306.56;;;27.55;32.38
16544;BME280;8384;47.996;7.786;2022-07-05T10:52:25;99298.41;;;27.82;30.54
16544;BME280;8384;47.996;7.786;2022-07-05T10:55:19;99303.28;;;27.85;30.80
16544;BME280;8384;47.996;7.786;2022-07-05T11:03:52;99292.00;;;26.60;32.41
16544;BME280;8384;47.996;7.786;2022-07-05T11:06:25;99299.88;;;27.76;31.50
16544;BME280;8384;47.996;7.786;2022-07-05T11:13:54;99298.81;;;27.04;32.20
16544;BME280;8384;47.996;7.786;2022-07-05T11:16:30;99300.78;;;26.87;31.34
16544;BME280;8384;47.996;7.786;2022-07-05T11:19:10;99300.88;;;26.78;31.54
16544;BME280;8384;47.996;7.786;2022-07-05T11:21:40;99292.69;;;27.46;30.83
16544;BME280;8384;47.996;7.786;2022-07-05T11:24:26;99295.56;;;27.98;29.90
16544;BME280;8384;47.996;7.786;2022-07-05T11:26:52;99275.78;;;28.26;30.30
16544;BME280;8384;47.996;7.786;2022-07-05T11:29:48;99283.84;;;27.76;29.98
16544;BME280;8384;47.996;7.786;2022-07-05T11:32:15;99279.84;;;27.77;28.93
16544;BME280;8384;47.996;7.786;2022-07-05T11:34:42;99282.06;;;28.39;28.58
16544;BME280;8384;47.996;7.786;2022-07-05T11:39:39;99256.03;;;28.62;28.83
16544;BME280;8384;47.996;7.786;2022-07-05T11:42:05;99276.28;;;29.34;27.28
16544;BME280;8384;47.996;7.786;2022-07-05T11:44:34;99268.91;;;28.83;28.31
16544;BME280;8384;47.996;7.786;2022-07-05T11:47:00;99269.31;;;28.26;29.42
16544;BME280;8384;47.996;7.786;2022-07-05T11:49:26;99264.97;;;28.68;28.88
16544;BME280;8384;47.996;7.786;2022-07-05T11:51:59;99265.59;;;28.77;29.71
16544;BME280;8384;47.996;7.786;2022-07-05T11:54:26;99262.28;;;28.95;29.25
16544;BME280;8384;47.996;7.786;2022-07-05T11:56:52;99232.84;;;29.12;28.22
16544;BME280;8384;47.996;7.786;2022-07-05T11:59:19;99264.25;;;29.60;28.46
16544;BME280;8384;47.996;7.786;2022-07-05T12:01:45;99258.25;;;28.72;29.79
16544;BME280;8384;47.996;7.786;2022-07-05T12:04:10;99246.19;;;28.33;29.19
16544;BME280;8384;47.996;7.786;2022-07-05T12:06:42;99259.72;;;28.86;28.76
16544;BME280;8384;47.996;7.786;2022-07-05T12:09:07;99246.97;;;28.53;28.65
16544;BME280;8384;47.996;7.786;2022-07-05T12:11:33;99253.28;;;28.85;28.61
16544;BME280;8384;47.996;7.786;2022-07-05T12:14:23;99260.13;;;29.54;28.40
16544;BME280;8384;47.996;7.786;2022-07-05T12:17:12;99262.88;;;29.51;28.05
16544;BME280;8384;47.996;7.786;2022-07-05T12:19:38;99217.34;;;28.98;28.23
16544;BME280;8384;47.996;7.786;2022-07-05T12:22:03;99255.03;;;29.90;28.64
16544;BME280;8384;47.996;7.786;2022-07-05T12:24:29;99216.44;;;28.12;29.93
16544;BME280;8384;47.996;7.786;2022-07-05T12:26:54;99235.53;;;28.81;29.31
16544;BME280;8384;47.996;7.786;2022-07-05T12:29:20;99250.88;;;30.38;26.72
16544;BME280;8384;47.996;7.786;2022-07-05T12:32:04;99260.06;;;29.51;27.50
16544;BME280;8384;47.996;7.786;2022-07-05T12:34:33;99236.13;;;30.18;26.61
16544;BME280;8384;47.996;7.786;2022-07-05T12:36:59;99245.03;;;30.54;27.14
16544;BME280;8384;47.996;7.786;2022-07-05T12:39:24;99252.84;;;30.64;26.49
16544;BME280;8384;47.996;7.786;2022-07-05T12:41:50;99245.06;;;31.82;26.63
16544;BME280;8384;47.996;7.786;2022-07-05T12:44:20;99247.06;;;32.59;24.89
16544;BME280;8384;47.996;7.786;2022-07-05T12:46:46;99252.28;;;32.46;23.16
16544;BME280;8384;47.996;7.786;2022-07-05T12:49:11;99238.00;;;30.71;25.50
16544;BME280;8384;47.996;7.786;2022-07-05T12:51:39;99239.69;;;31.69;25.38
16544;BME280;8384;47.996;7.786;2022-07-05T12:54:17;99237.59;;;32.22;24.12
16544;BME280;8384;47.996;7.786;2022-07-05T12:57:02;99230.50;;;32.61;23.80
16544;BME280;8384;47.996;7.786;2022-07-05T13:00:05;99241.25;;;31.60;23.94
16544;BME280;8384;47.996;7.786;2022-07-05T13:02:42;99231.31;;;31.77;24.32
16544;BME280;8384;47.996;7.786;2022-07-05T13:05:09;99224.72;;;32.25;23.13
16544;BME280;8384;47.996;7.786;2022-07-05T13:07:44;99216.47;;;30.93;24.87
16544;BME280;8384;47.996;7.786;2022-07-05T13:10:26;99231.69;;;30.51;25.75
16544;BME280;8384;47.996;7.786;2022-07-05T13:12:53;99210.94;;;28.78;29.11
16544;BME280;8384;47.996;7.786;2022-07-05T13:15:19;99234.59;;;29.20;28.04
16544;BME280;8384;47.996;7.786;2022-07-05T13:17:44;99231.00;;;28.77;28.17
16544;BME280;8384;47.996;7.786;2022-07-05T13:20:10;99245.59;;;29.06;28.37
16544;BME280;8384;47.996;7.786;2022-07-05T13:22:37;99228.59;;;29.45;26.89
16544;BME280;8384;47.996;7.786;2022-07-05T13:25:03;99230.72;;;29.78;26.99
16544;BME280;8384;47.996;7.786;2022-07-05T13:27:29;99229.56;;;30.75;25.95